Airfield :
LOGIN :

Register | Disclaimer

   EN    FR    IT 

 










Legend :    VFR   Marginal VFR   IFR   Intensive IFR   Very Intensive IFR
Visi :
Ceiling :
>= 8 km
>= 3000ft
5 to 8 km
1000 to 3000 ft
1500m to 5 km
500 to 1000 ft
800 to 1500m
200 to 500 ft
< 800m
< 200 ft
Symbols :   Thunderstorms  Fog  Heavy snow  Heavy precipitations  Wind > 20 kt
SIGMETs :     Misc.  Thunderstorms  Icing  Turbulence  Mountain Waves  Volcanic Ashes







- Airport Elevation : 821 ft
- IATA code : LYS
- Download approach charts


LFLL - Lyon St Exupéry / Satolas

CURRENT METAR :
  • 200900Z VRB03KT 9000 OVC007 04/01 Q1026 NOSIG

EXPIRED METARs :
  • 200830Z VRB03KT 8000 OVC008 04/01 Q1026 NOSIG
  • 200800Z 36004KT 7000 OVC008 03/02 Q1026 NOSIG
  • 200730Z 04003KT 7000 OVC008 04/02 Q1026 NOSIG
  • 200700Z 03004KT 350V060 7000 OVC008 04/02 Q1025 NOSIG

TAF TAF LFLL
Valid from the 20 at 06:00 until the 21 at 12:00 UTC


200500Z 2006/2112 VRB03KT 8000 OVC006
PROB40
TEMPO 2006/2010 3000 BR OVC003
PROB30
TEMPO 2006/2009 0700 FG VV///
BECMG 2010/2013 BKN012
BECMG 2013/2015 FEW013
PROB40
TEMPO 2018/2110 3000 BR
PROB30
TEMPO 2102/2109 0800 BCFG BKN001
No reported NOTAMs for that airfield.



MET'MAP, your aeronautical weather chart ! - Copyright ORBIFLY December 2007 - Disclaimer

ORBIFLY MET'MAP TEAM :

Programming & Development : Alexandra Zaïnal
Concept & Development : Baudouin d'Aumeries
Co-Development & Prog : Marc-Olivier Méhu
Technical & hardware support : Manuel Goepfert

Contact : metmap@orbifly.com




SOURCES & CREDITS :

   NOAA